Time;durP1;ratioP1;P1;durP2;ratioP2;P2;SDS_P1;SDS_P2;PMS_P1;PMS_P2;Temp;Humidity;BMP_temperature;BMP_pressure;BME280_temperature;BME280_humidity;BME280_pressure;Samples;Min_cycle;Max_cycle;Signal;HPM_P1;HPM_P2
2022/08/12 00:45:06;;;;;;;;;;;23.50;64.00;;;;;;5051839;28;19985;-53
2022/08/12 00:47:32;;;;;;;;;;;23.50;64.90;;;;;;5052032;28;19916;-53
2022/08/12 00:49:58;;;;;;;;;;;23.40;65.50;;;;;;5053072;28;20015;-54
2022/08/12 00:52:24;;;;;;;;;;;23.30;65.60;;;;;;5049832;28;20019;-54
2022/08/12 00:54:51;;;;;;;;;;;23.30;65.80;;;;;;5035097;28;20451;-51
2022/08/12 00:57:16;;;;;;;;;;;23.30;65.70;;;;;;5035175;28;19917;-53
2022/08/12 00:59:43;;;;;;;;;;;23.30;65.50;;;;;;5055973;28;20007;-55
2022/08/12 01:02:12;;;;;;;;;;;23.10;63.40;;;;;;5056933;28;19917;-53
2022/08/12 01:12:56;;;;;;;;;;;22.80;66.80;;;;;;5057739;28;19921;-50
2022/08/12 01:15:22;;;;;;;;;;;22.80;66.90;;;;;;5057633;28;19913;-50
2022/08/12 01:17:48;;;;;;;;;;;22.80;67.10;;;;;;5058357;28;19999;-54
2022/08/12 01:20:22;;;;;;;;;;;22.80;67.10;;;;;;5058184;28;20015;-50
2022/08/12 01:23:06;;;;;;;;;;;22.80;67.50;;;;;;5058116;28;20437;-50
2022/08/12 01:25:34;;;;;;;;;;;22.80;67.90;;;;;;5058204;28;20004;-49
2022/08/12 01:28:01;;;;;;;;;;;22.80;68.10;;;;;;5057928;28;19920;-48
2022/08/12 01:30:29;;;;;;;;;;;22.80;68.30;;;;;;5057923;28;20128;-53
2022/08/12 01:32:58;;;;;;;;;;;22.80;68.50;;;;;;5058192;28;19919;-53
2022/08/12 01:35:25;;;;;;;;;;;22.80;68.50;;;;;;5058227;28;19912;-52
2022/08/12 01:37:50;;;;;;;;;;;22.80;68.60;;;;;;5058486;28;19935;-50
2022/08/12 01:40:18;;;;;;;;;;;22.80;68.50;;;;;;5057814;28;20360;-52
2022/08/12 01:42:45;;;;;;;;;;;22.70;68.30;;;;;;5057668;28;20349;-51
2022/08/12 01:45:11;;;;;;;;;;;22.70;68.40;;;;;;5058245;28;19912;-51
2022/08/12 01:47:39;;;;;;;;;;;22.60;68.50;;;;;;5057446;28;20356;-52
2022/08/12 01:50:16;;;;;;;;;;;22.50;68.60;;;;;;5058306;28;19921;-49
2022/08/12 01:52:53;;;;;;;;;;;22.40;69.00;;;;;;5057340;28;19917;-53
2022/08/12 01:55:21;;;;;;;;;;;22.40;69.10;;;;;;5056719;28;19916;-49
2022/08/12 01:57:58;;;;;;;;;;;22.30;69.00;;;;;;5058616;28;19971;-50
2022/08/12 02:00:24;;;;;;;;;;;22.30;69.00;;;;;;5057471;28;20194;-54
2022/08/12 02:03:00;;;;;;;;;;;22.20;68.90;;;;;;5058183;28;19913;-54
2022/08/12 02:11:18;;;;;;;;;;;22.10;69.20;;;;;;5053401;28;19992;-52
2022/08/12 02:13:55;;;;;;;;;;;22.10;69.30;;;;;;5055093;28;20396;-52
2022/08/12 02:16:40;;;;;;;;;;;22.10;69.20;;;;;;5054114;28;19917;-51
2022/08/12 02:19:27;;;;;;;;;;;22.10;69.50;;;;;;5052863;28;19909;-53
2022/08/12 02:22:11;;;;;;;;;;;22.10;69.60;;;;;;5050983;28;19920;-53
2022/08/12 02:24:38;;;;;;;;;;;22.10;69.80;;;;;;5039831;28;20003;-55
2022/08/12 02:27:07;;;;;;;;;;;22.10;70.00;;;;;;5054257;28;19913;-51
2022/08/12 02:29:33;;;;;;;;;;;22.10;70.20;;;;;;5053121;28;19924;-53
2022/08/12 02:32:00;;;;;;;;;;;22.00;70.30;;;;;;5054055;28;20003;-52
2022/08/12 02:34:27;;;;;;;;;;;22.00;70.70;;;;;;5054614;28;20391;-50
2022/08/12 02:36:55;;;;;;;;;;;22.00;70.80;;;;;;5054160;28;20385;-53
2022/08/12 02:39:22;;;;;;;;;;;21.90;71.00;;;;;;5054930;28;19921;-53
2022/08/12 02:41:51;;;;;;;;;;;21.80;70.80;;;;;;5053781;28;20055;-51
2022/08/12 02:44:16;;;;;;;;;;;21.80;70.70;;;;;;5053685;28;20066;-50
2022/08/12 02:46:48;;;;;;;;;;;21.80;71.00;;;;;;5053386;28;20003;-53
2022/08/12 02:49:30;;;;;;;;;;;21.70;71.10;;;;;;5052333;28;19917;-56
2022/08/12 02:51:57;;;;;;;;;;;21.70;71.20;;;;;;5053470;28;20373;-56
2022/08/12 02:54:23;;;;;;;;;;;21.70;71.30;;;;;;5040037;28;19921;-53
2022/08/12 02:56:50;;;;;;;;;;;21.60;71.30;;;;;;5049420;28;20051;-55
2022/08/12 02:59:15;;;;;;;;;;;21.60;71.70;;;;;;5053538;28;19913;-55
2022/08/12 03:01:45;;;;;;;;;;;21.50;71.80;;;;;;5053675;28;19936;-50
2022/08/12 03:04:12;;;;;;;;;;;21.50;71.90;;;;;;5053201;28;19986;-48
2022/08/12 03:06:44;;;;;;;;;;;21.40;71.90;;;;;;5053751;28;20182;-52
2022/08/12 03:09:12;;;;;;;;;;;21.40;71.90;;;;;;5053329;28;19920;-53
2022/08/12 03:11:39;;;;;;;;;;;21.40;72.10;;;;;;5053446;28;20396;-54
2022/08/12 03:14:09;;;;;;;;;;;21.40;72.30;;;;;;5053396;28;20293;-54
2022/08/12 03:16:35;;;;;;;;;;;21.30;72.70;;;;;;5052953;28;20003;-51
2022/08/12 03:19:02;;;;;;;;;;;21.30;73.00;;;;;;5051445;28;20342;-51
2022/08/12 03:21:28;;;;;;;;;;;21.20;73.20;;;;;;5052228;28;19936;-54
2022/08/12 03:23:54;;;;;;;;;;;21.10;73.60;;;;;;5052972;28;20384;-52
2022/08/12 03:26:24;;;;;;;;;;;21.00;73.80;;;;;;5054078;28;19951;-55
2022/08/12 03:28:52;;;;;;;;;;;21.00;73.70;;;;;;5052323;28;19920;-51
2022/08/12 03:31:29;;;;;;;;;;;21.00;74.00;;;;;;5052381;28;20377;-53
2022/08/12 03:34:02;;;;;;;;;;;20.90;74.10;;;;;;5052428;28;20356;-52
2022/08/12 03:36:35;;;;;;;;;;;20.90;74.00;;;;;;5052105;28;20269;-56
2022/08/12 03:42:09;;;;;;;;;;;20.80;74.50;;;;;;5052422;28;19937;-55
2022/08/12 04:01:26;;;;;;;;;;;20.90;74.10;;;;;;5052492;28;19913;-54
2022/08/12 04:03:52;;;;;;;;;;;20.90;74.30;;;;;;5051747;28;19917;-51
2022/08/12 04:06:20;;;;;;;;;;;20.80;74.40;;;;;;5051713;28;19912;-54
2022/08/12 04:08:50;;;;;;;;;;;20.90;74.10;;;;;;5050587;28;19971;-53
2022/08/12 04:14:06;;;;;;;;;;;20.90;74.00;;;;;;5052302;28;19921;-54
2022/08/12 04:16:33;;;;;;;;;;;20.80;73.90;;;;;;5050858;28;19959;-55
2022/08/12 04:18:59;;;;;;;;;;;20.80;73.40;;;;;;5051852;28;19917;-53
2022/08/12 04:21:24;;;;;;;;;;;20.80;72.80;;;;;;5050760;28;19988;-51
2022/08/12 04:23:50;;;;;;;;;;;20.60;71.90;;;;;;5053027;28;19917;-52
2022/08/12 04:26:16;;;;;;;;;;;20.50;72.20;;;;;;5051415;28;19917;-50
2022/08/12 04:28:42;;;;;;;;;;;20.40;72.60;;;;;;5052441;28;19913;-52
2022/08/12 04:31:08;;;;;;;;;;;20.40;73.50;;;;;;5052145;28;19940;-52
2022/08/12 04:33:34;;;;;;;;;;;20.40;73.60;;;;;;5051080;28;20357;-53
2022/08/12 04:35:59;;;;;;;;;;;20.60;73.50;;;;;;5051423;28;20380;-51
2022/08/12 04:38:25;;;;;;;;;;;20.60;73.50;;;;;;5052470;28;19923;-54
2022/08/12 04:40:51;;;;;;;;;;;20.70;73.60;;;;;;5052655;28;19913;-50
2022/08/12 04:43:17;;;;;;;;;;;20.80;73.50;;;;;;5051827;28;19939;-49
2022/08/12 04:45:42;;;;;;;;;;;20.80;73.40;;;;;;5050283;28;19916;-52
2022/08/12 04:48:08;;;;;;;;;;;20.90;73.10;;;;;;5051912;28;19913;-53
2022/08/12 04:50:33;;;;;;;;;;;20.90;73.20;;;;;;5051591;28;19987;-52
2022/08/12 04:52:59;;;;;;;;;;;20.90;72.80;;;;;;5049288;28;19916;-53
2022/08/12 04:55:25;;;;;;;;;;;20.90;72.90;;;;;;5040155;28;19921;-51
2022/08/12 04:57:52;;;;;;;;;;;20.90;72.40;;;;;;5051138;28;19956;-54
2022/08/12 05:00:18;;;;;;;;;;;20.80;72.50;;;;;;5051944;28;19920;-52
2022/08/12 05:02:43;;;;;;;;;;;20.70;72.70;;;;;;5052606;28;19939;-51
2022/08/12 05:05:17;;;;;;;;;;;20.60;73.40;;;;;;5051856;28;19909;-53
2022/08/12 05:07:43;;;;;;;;;;;20.60;73.30;;;;;;5033878;28;19956;-53
2022/08/12 05:10:09;;;;;;;;;;;20.50;73.20;;;;;;5052011;28;19952;-55
2022/08/12 05:12:39;;;;;;;;;;;20.60;73.30;;;;;;5051676;28;19918;-52
2022/08/12 05:15:05;;;;;;;;;;;20.60;73.30;;;;;;5050976;28;20070;-55
2022/08/12 05:17:31;;;;;;;;;;;20.70;73.10;;;;;;5050531;28;19962;-54
2022/08/12 05:19:56;;;;;;;;;;;20.70;73.10;;;;;;5051029;28;20309;-54
2022/08/12 05:22:22;;;;;;;;;;;20.80;72.80;;;;;;5049706;28;19913;-54
2022/08/12 05:24:47;;;;;;;;;;;21.00;72.40;;;;;;5049588;28;19923;-54
2022/08/12 05:27:13;;;;;;;;;;;21.10;72.20;;;;;;5049622;28;19917;-54
2022/08/12 05:29:39;;;;;;;;;;;21.10;70.90;;;;;;5050125;28;19913;-55
2022/08/12 05:32:06;;;;;;;;;;;21.10;71.00;;;;;;5051002;28;19939;-50
2022/08/12 05:34:33;;;;;;;;;;;21.20;71.40;;;;;;5051395;28;19978;-53
2022/08/12 05:36:58;;;;;;;;;;;21.20;70.60;;;;;;5051122;28;19923;-51
2022/08/12 05:39:24;;;;;;;;;;;21.20;68.70;;;;;;5051470;28;20352;-54
2022/08/12 05:41:49;;;;;;;;;;;21.10;67.50;;;;;;5051394;28;19916;-52
2022/08/12 05:44:16;;;;;;;;;;;21.10;66.10;;;;;;5052493;28;19913;-49
2022/08/12 05:46:41;;;;;;;;;;;21.20;66.80;;;;;;5055123;28;19917;-50
2022/08/12 05:49:07;;;;;;;;;;;21.30;66.90;;;;;;5054566;28;20419;-53
2022/08/12 05:51:34;;;;;;;;;;;21.30;67.20;;;;;;5054562;28;19920;-52
2022/08/12 05:54:00;;;;;;;;;;;21.40;67.50;;;;;;5045338;28;20366;-53
2022/08/12 05:56:25;;;;;;;;;;;21.50;68.00;;;;;;5054694;28;19924;-50
2022/08/12 05:58:51;;;;;;;;;;;21.60;68.20;;;;;;5054309;28;20371;-50
2022/08/12 06:01:18;;;;;;;;;;;21.70;69.10;;;;;;5054553;28;19916;-51
2022/08/12 06:03:43;;;;;;;;;;;21.70;70.20;;;;;;5055061;28;19939;-49
2022/08/12 06:06:09;;;;;;;;;;;21.70;71.00;;;;;;5055255;28;19913;-51
2022/08/12 06:08:35;;;;;;;;;;;21.70;70.30;;;;;;5055054;28;19917;-52
2022/08/12 06:11:04;;;;;;;;;;;21.70;69.30;;;;;;5053700;28;19917;-54
2022/08/12 06:13:33;;;;;;;;;;;21.80;69.20;;;;;;5054671;28;19916;-53
2022/08/12 06:15:59;;;;;;;;;;;22.00;68.90;;;;;;5052801;28;19916;-54
2022/08/12 06:18:25;;;;;;;;;;;22.10;67.90;;;;;;5054876;28;19919;-54
2022/08/12 06:20:52;;;;;;;;;;;22.20;65.60;;;;;;5054568;28;20082;-55
2022/08/12 06:23:17;;;;;;;;;;;22.30;65.40;;;;;;5054124;28;20359;-51
2022/08/12 06:25:45;;;;;;;;;;;22.40;64.00;;;;;;5055424;28;19948;-53
2022/08/12 06:28:18;;;;;;;;;;;22.40;63.90;;;;;;5053745;28;19952;-55
2022/08/12 06:30:44;;;;;;;;;;;22.50;63.20;;;;;;5053729;28;19913;-54
2022/08/12 06:33:10;;;;;;;;;;;22.50;63.00;;;;;;5054595;28;19916;-50
2022/08/12 06:35:37;;;;;;;;;;;22.60;63.10;;;;;;5054400;28;19912;-53
2022/08/12 06:38:02;;;;;;;;;;;22.70;63.10;;;;;;5054782;28;19917;-54
2022/08/12 06:43:12;;;;;;;;;;;22.90;63.00;;;;;;5034473;28;19909;-56
2022/08/12 06:45:43;;;;;;;;;;;23.00;62.70;;;;;;5052727;28;20000;-55
2022/08/12 06:48:10;;;;;;;;;;;23.10;62.40;;;;;;5054138;28;19909;-54
2022/08/12 06:50:35;;;;;;;;;;;23.10;62.00;;;;;;5053614;28;20373;-51
2022/08/12 06:53:03;;;;;;;;;;;23.10;61.90;;;;;;5049656;28;19917;-51
2022/08/12 06:55:29;;;;;;;;;;;23.20;62.20;;;;;;5043528;28;19921;-55
2022/08/12 06:57:55;;;;;;;;;;;23.30;62.10;;;;;;5050631;28;19941;-53
2022/08/12 07:00:22;;;;;;;;;;;23.20;61.80;;;;;;5041428;28;20007;-53
2022/08/12 07:02:48;;;;;;;;;;;23.30;61.90;;;;;;5053801;28;19920;-50
2022/08/12 07:05:13;;;;;;;;;;;23.40;61.80;;;;;;5053607;28;20281;-53
2022/08/12 07:07:39;;;;;;;;;;;23.50;61.80;;;;;;5053709;28;19917;-53
2022/08/12 07:10:04;;;;;;;;;;;23.70;61.60;;;;;;5054017;28;20435;-55
2022/08/12 07:12:30;;;;;;;;;;;23.70;61.80;;;;;;5052529;28;20338;-54
2022/08/12 07:14:57;;;;;;;;;;;23.70;62.40;;;;;;5053998;28;19917;-56
2022/08/12 07:17:22;;;;;;;;;;;23.80;62.10;;;;;;5052786;28;19950;-56
2022/08/12 07:19:48;;;;;;;;;;;23.90;61.80;;;;;;5053620;28;20284;-55
2022/08/12 07:22:14;;;;;;;;;;;23.80;63.00;;;;;;5053687;28;19913;-55
2022/08/12 07:24:41;;;;;;;;;;;23.90;62.00;;;;;;5053369;28;19923;-55
2022/08/12 07:27:06;;;;;;;;;;;24.00;61.80;;;;;;5052571;28;19920;-55
2022/08/12 07:29:33;;;;;;;;;;;24.10;62.00;;;;;;5053867;28;20358;-55
2022/08/12 07:31:58;;;;;;;;;;;24.10;61.60;;;;;;5053229;28;20052;-53
2022/08/12 07:34:25;;;;;;;;;;;24.20;61.40;;;;;;5053361;28;20011;-55
2022/08/12 07:36:51;;;;;;;;;;;24.40;61.20;;;;;;5053291;28;19967;-53
2022/08/12 07:39:16;;;;;;;;;;;24.50;61.80;;;;;;5053148;28;19916;-53
2022/08/12 07:41:43;;;;;;;;;;;24.50;60.80;;;;;;5052667;28;19912;-54
2022/08/12 07:44:08;;;;;;;;;;;24.50;61.10;;;;;;5052538;28;19917;-55
2022/08/12 07:46:35;;;;;;;;;;;24.60;61.30;;;;;;5053738;28;20273;-57
2022/08/12 07:49:05;;;;;;;;;;;24.70;61.20;;;;;;5052799;28;19916;-56
2022/08/12 07:51:31;;;;;;;;;;;24.80;61.40;;;;;;5052333;28;20288;-55
2022/08/12 07:53:57;;;;;;;;;;;25.00;60.70;;;;;;5052160;28;19920;-56
2022/08/12 07:56:23;;;;;;;;;;;25.00;60.40;;;;;;5052691;28;19923;-52
2022/08/12 07:58:49;;;;;;;;;;;25.00;60.30;;;;;;5053050;28;19909;-54
2022/08/12 08:01:18;;;;;;;;;;;25.00;60.20;;;;;;5052168;28;19948;-55
2022/08/12 08:06:32;;;;;;;;;;;25.10;59.60;;;;;;5052333;28;19916;-57
2022/08/12 08:08:58;;;;;;;;;;;25.10;59.10;;;;;;5051301;28;19920;-54
2022/08/12 08:14:09;;;;;;;;;;;25.20;57.10;;;;;;5052031;28;19920;-57
2022/08/12 08:16:39;;;;;;;;;;;25.20;56.60;;;;;;5051461;28;20014;-55
2022/08/12 08:19:05;;;;;;;;;;;25.20;56.10;;;;;;5052733;28;20335;-56
2022/08/12 08:21:34;;;;;;;;;;;25.10;55.70;;;;;;5052194;28;19913;-55
2022/08/12 08:24:15;;;;;;;;;;;25.20;56.10;;;;;;5051110;28;19924;-55
2022/08/12 08:26:42;;;;;;;;;;;25.40;56.70;;;;;;5052406;28;19970;-55
2022/08/12 08:29:07;;;;;;;;;;;25.50;56.30;;;;;;5035000;28;20134;-57
2022/08/12 08:31:33;;;;;;;;;;;25.60;55.70;;;;;;5047325;28;20407;-56
2022/08/12 08:34:00;;;;;;;;;;;25.60;55.70;;;;;;5051121;28;19945;-56
2022/08/12 08:36:26;;;;;;;;;;;25.60;56.20;;;;;;5050415;28;19991;-54
2022/08/12 08:38:52;;;;;;;;;;;25.70;56.30;;;;;;5049884;28;20000;-53
2022/08/12 08:44:01;;;;;;;;;;;25.80;55.50;;;;;;5053086;28;19932;-54
2022/08/12 08:46:27;;;;;;;;;;;25.80;55.30;;;;;;5050433;28;20395;-55
2022/08/12 08:48:53;;;;;;;;;;;25.80;54.90;;;;;;5051407;28;20338;-55
2022/08/12 08:51:18;;;;;;;;;;;25.80;55.00;;;;;;5051624;28;19928;-54
2022/08/12 08:53:44;;;;;;;;;;;25.90;54.70;;;;;;5049827;28;19932;-54
2022/08/12 08:56:10;;;;;;;;;;;25.90;54.60;;;;;;5052121;28;20361;-57
2022/08/12 08:58:37;;;;;;;;;;;26.00;54.80;;;;;;5051721;28;19917;-54
2022/08/12 09:01:05;;;;;;;;;;;26.00;54.90;;;;;;5051422;28;20015;-54
2022/08/12 09:03:32;;;;;;;;;;;26.10;54.40;;;;;;5052811;28;20339;-51
2022/08/12 09:06:01;;;;;;;;;;;26.10;54.20;;;;;;5051783;28;19920;-54
2022/08/12 09:08:27;;;;;;;;;;;26.10;54.10;;;;;;5049087;28;19959;-51
2022/08/12 09:10:57;;;;;;;;;;;26.20;54.40;;;;;;5048170;28;20323;-54
2022/08/12 09:13:31;;;;;;;;;;;26.10;54.20;;;;;;5040053;28;19913;-56
2022/08/12 09:15:57;;;;;;;;;;;26.20;53.80;;;;;;5050287;28;19927;-55
2022/08/12 09:18:23;;;;;;;;;;;26.20;53.50;;;;;;5057580;28;20288;-57
2022/08/12 09:20:49;;;;;;;;;;;26.20;53.70;;;;;;5054287;28;19920;-55
2022/08/12 09:23:16;;;;;;;;;;;26.30;53.90;;;;;;5055251;28;20369;-55
2022/08/12 09:25:43;;;;;;;;;;;26.40;54.10;;;;;;5054521;28;20218;-54
2022/08/12 09:28:09;;;;;;;;;;;26.50;53.80;;;;;;5054340;28;20373;-54
2022/08/12 09:30:35;;;;;;;;;;;26.60;54.00;;;;;;5055387;28;19913;-57
2022/08/12 09:33:01;;;;;;;;;;;26.60;53.70;;;;;;5055091;28;19921;-56
2022/08/12 09:35:30;;;;;;;;;;;26.70;53.70;;;;;;5054421;28;19913;-55
2022/08/12 09:37:55;;;;;;;;;;;26.70;53.90;;;;;;5053397;28;19917;-57
2022/08/12 09:40:22;;;;;;;;;;;26.90;54.00;;;;;;5055566;28;19909;-55
2022/08/12 09:45:33;;;;;;;;;;;27.00;53.60;;;;;;5054933;28;20365;-55
2022/08/12 09:48:02;;;;;;;;;;;27.00;53.30;;;;;;5049342;28;19913;-56
2022/08/12 09:50:28;;;;;;;;;;;27.00;53.20;;;;;;5048763;28;19955;-55
2022/08/12 09:53:09;;;;;;;;;;;27.00;53.70;;;;;;5052474;28;19960;-54
2022/08/12 09:55:36;;;;;;;;;;;27.00;53.90;;;;;;5055245;28;19923;-54
2022/08/12 09:58:03;;;;;;;;;;;27.00;54.00;;;;;;5055425;28;20335;-56
2022/08/12 10:00:28;;;;;;;;;;;27.10;53.80;;;;;;5055029;28;19916;-57
2022/08/12 10:02:57;;;;;;;;;;;27.20;53.70;;;;;;5054059;28;19916;-56
2022/08/12 10:05:23;;;;;;;;;;;27.30;53.50;;;;;;5054671;28;19929;-54
2022/08/12 10:07:48;;;;;;;;;;;27.20;53.20;;;;;;5053514;28;19919;-54
2022/08/12 10:10:14;;;;;;;;;;;27.30;53.30;;;;;;5053520;28;20369;-55
2022/08/12 10:15:25;;;;;;;;;;;27.40;53.50;;;;;;5054377;28;19917;-55
2022/08/12 10:17:52;;;;;;;;;;;27.40;53.10;;;;;;5056046;28;19912;-56
2022/08/12 10:20:17;;;;;;;;;;;27.40;53.50;;;;;;5054844;28;19951;-55
2022/08/12 10:22:55;;;;;;;;;;;27.50;53.50;;;;;;5054715;28;19944;-56
2022/08/12 10:30:48;;;;;;;;;;;27.50;53.10;;;;;;5042069;28;20387;-57
2022/08/12 10:33:14;;;;;;;;;;;27.40;53.60;;;;;;5054466;28;19917;-61
2022/08/12 10:35:42;;;;;;;;;;;27.40;54.10;;;;;;5049052;28;19924;-55
2022/08/12 10:38:08;;;;;;;;;;;27.50;53.90;;;;;;5044482;28;19969;-57
2022/08/12 10:43:39;;;;;;;;;;;27.60;53.80;;;;;;5047295;28;19917;-58
2022/08/12 10:46:06;;;;;;;;;;;27.80;53.70;;;;;;5053199;28;20368;-55
2022/08/12 10:48:32;;;;;;;;;;;27.80;53.30;;;;;;5047326;28;19952;-56
2022/08/12 10:50:57;;;;;;;;;;;27.90;53.30;;;;;;5049143;28;19913;-57
2022/08/12 10:53:23;;;;;;;;;;;28.00;53.60;;;;;;5050337;28;20068;-54
2022/08/12 10:55:50;;;;;;;;;;;28.10;53.40;;;;;;5039726;28;19927;-55
2022/08/12 10:58:16;;;;;;;;;;;28.20;53.00;;;;;;5053729;28;19913;-55
2022/08/12 11:00:41;;;;;;;;;;;28.30;53.10;;;;;;5053071;28;19924;-54
2022/08/12 11:03:08;;;;;;;;;;;28.20;52.90;;;;;;5053598;28;19916;-52
2022/08/12 11:05:35;;;;;;;;;;;28.30;53.10;;;;;;5053739;28;19924;-49
2022/08/12 11:08:01;;;;;;;;;;;28.30;52.70;;;;;;5053282;28;20316;-51
2022/08/12 11:10:27;;;;;;;;;;;28.30;52.50;;;;;;5053022;28;19939;-52
2022/08/12 11:12:55;;;;;;;;;;;28.30;52.20;;;;;;5052422;28;19921;-53
2022/08/12 11:15:22;;;;;;;;;;;28.30;52.10;;;;;;5048812;28;19998;-53
2022/08/12 11:17:49;;;;;;;;;;;28.40;52.20;;;;;;5051715;28;20236;-56
2022/08/12 11:20:14;;;;;;;;;;;28.10;52.20;;;;;;5053525;28;19915;-51
2022/08/12 11:22:40;;;;;;;;;;;28.20;52.20;;;;;;5051846;28;19917;-54
2022/08/12 11:25:09;;;;;;;;;;;28.30;52.30;;;;;;5051278;28;19917;-53
2022/08/12 11:27:34;;;;;;;;;;;28.30;52.20;;;;;;5048179;28;19917;-54
2022/08/12 11:30:00;;;;;;;;;;;28.30;51.80;;;;;;5053137;28;19924;-51
2022/08/12 11:32:25;;;;;;;;;;;28.40;51.70;;;;;;5036822;28;19918;-52
2022/08/12 11:34:51;;;;;;;;;;;28.40;51.20;;;;;;5046380;28;19955;-56
2022/08/12 11:37:16;;;;;;;;;;;28.40;50.70;;;;;;5044774;28;19920;-51
2022/08/12 11:39:42;;;;;;;;;;;28.30;50.70;;;;;;5051517;28;19962;-54
2022/08/12 11:42:08;;;;;;;;;;;28.40;51.10;;;;;;5047793;28;20369;-63
2022/08/12 11:44:33;;;;;;;;;;;28.40;52.00;;;;;;5042712;28;20392;-59
2022/08/12 11:46:59;;;;;;;;;;;28.40;51.30;;;;;;5046238;28;19917;-59
2022/08/12 11:49:25;;;;;;;;;;;28.50;50.80;;;;;;5048116;28;19916;-57
2022/08/12 11:51:51;;;;;;;;;;;28.10;50.00;;;;;;5054912;28;20011;-58
2022/08/12 11:54:16;;;;;;;;;;;28.10;50.50;;;;;;5052879;28;20015;-56
2022/08/12 11:56:42;;;;;;;;;;;28.10;50.60;;;;;;5051094;28;19970;-59
2022/08/12 11:59:07;;;;;;;;;;;28.10;50.70;;;;;;5048279;28;19916;-57
2022/08/12 12:01:33;;;;;;;;;;;28.00;50.80;;;;;;5052162;28;19917;-59
2022/08/12 12:03:58;;;;;;;;;;;28.00;51.20;;;;;;5049702;28;20424;-59
2022/08/12 12:06:24;;;;;;;;;;;28.20;51.40;;;;;;5048642;28;20295;-55
2022/08/12 12:08:50;;;;;;;;;;;28.40;51.30;;;;;;5047282;28;19917;-56
2022/08/12 12:11:15;;;;;;;;;;;28.70;51.40;;;;;;5050118;28;20035;-54
2022/08/12 12:13:41;;;;;;;;;;;28.80;50.80;;;;;;5052108;28;19920;-59
2022/08/12 12:16:06;;;;;;;;;;;28.90;50.50;;;;;;5052840;28;20055;-57
2022/08/12 12:18:33;;;;;;;;;;;29.10;50.20;;;;;;5051917;28;19917;-58
2022/08/12 12:21:03;;;;;;;;;;;29.30;50.00;;;;;;5051237;28;19920;-58
2022/08/12 12:23:30;;;;;;;;;;;29.20;49.90;;;;;;5052118;28;19921;-57
2022/08/12 12:25:56;;;;;;;;;;;29.00;49.90;;;;;;5051279;28;20007;-55
2022/08/12 12:28:22;;;;;;;;;;;28.70;50.00;;;;;;5046237;28;20066;-56
2022/08/12 12:30:47;;;;;;;;;;;28.60;50.20;;;;;;5048821;28;19956;-57
2022/08/12 12:33:13;;;;;;;;;;;28.80;50.50;;;;;;5051727;28;20040;-56
2022/08/12 12:35:39;;;;;;;;;;;28.90;49.70;;;;;;5051782;28;19952;-57
2022/08/12 12:38:06;;;;;;;;;;;29.00;49.80;;;;;;5051830;28;19919;-57
2022/08/12 12:40:32;;;;;;;;;;;29.30;50.20;;;;;;5050544;28;20356;-55
2022/08/12 12:42:58;;;;;;;;;;;29.30;49.90;;;;;;5049834;28;19924;-59
2022/08/12 12:45:24;;;;;;;;;;;29.40;49.60;;;;;;5048362;28;19909;-57
2022/08/12 12:47:54;;;;;;;;;;;29.50;49.30;;;;;;5052019;28;20339;-57
2022/08/12 12:50:19;;;;;;;;;;;29.60;49.10;;;;;;5046203;28;19917;-58
2022/08/12 12:52:45;;;;;;;;;;;29.80;48.70;;;;;;5047442;28;19928;-58
2022/08/12 12:55:11;;;;;;;;;;;29.80;48.60;;;;;;5042629;28;20463;-58
2022/08/12 12:57:38;;;;;;;;;;;29.70;48.30;;;;;;5048388;28;19924;-58
2022/08/12 13:00:17;;;;;;;;;;;29.60;48.80;;;;;;5050433;28;19913;-58
2022/08/12 13:02:54;;;;;;;;;;;29.70;49.00;;;;;;5046009;28;19913;-60
2022/08/12 13:05:21;;;;;;;;;;;29.90;49.00;;;;;;5045445;28;19917;-58
2022/08/12 13:07:46;;;;;;;;;;;30.00;48.00;;;;;;5047696;28;19913;-59
2022/08/12 13:10:12;;;;;;;;;;;30.20;48.30;;;;;;5045942;28;19963;-58
2022/08/12 13:12:38;;;;;;;;;;;30.20;48.20;;;;;;5050309;28;19964;-60
2022/08/12 13:15:07;;;;;;;;;;;30.40;48.00;;;;;;5038870;28;20364;-58
2022/08/12 13:17:33;;;;;;;;;;;30.70;48.00;;;;;;5051162;28;19917;-59
2022/08/12 13:20:04;;;;;;;;;;;30.80;48.00;;;;;;5051581;28;19920;-58
2022/08/12 13:22:30;;;;;;;;;;;30.90;48.10;;;;;;5050780;28;20265;-58
2022/08/12 13:24:58;;;;;;;;;;;30.90;48.10;;;;;;5051684;28;19913;-56
2022/08/12 13:27:28;;;;;;;;;;;30.80;47.90;;;;;;5050277;28;20245;-60
2022/08/12 13:29:54;;;;;;;;;;;30.90;48.10;;;;;;5051295;28;19919;-58
2022/08/12 13:32:20;;;;;;;;;;;31.00;47.70;;;;;;5051369;28;19913;-59
2022/08/12 13:34:51;;;;;;;;;;;30.90;47.90;;;;;;5051776;28;20002;-59
2022/08/12 13:37:21;;;;;;;;;;;30.90;48.60;;;;;;5033432;28;19920;-60
2022/08/12 13:39:46;;;;;;;;;;;30.70;48.10;;;;;;5037435;28;19947;-58
2022/08/12 13:42:12;;;;;;;;;;;30.70;48.50;;;;;;5051385;28;19948;-57
2022/08/12 13:44:38;;;;;;;;;;;30.50;48.10;;;;;;5051241;28;20030;-59
2022/08/12 13:47:03;;;;;;;;;;;30.40;48.60;;;;;;5051492;28;19913;-58
2022/08/12 13:49:32;;;;;;;;;;;30.20;48.70;;;;;;5051381;28;19967;-58
2022/08/12 13:51:58;;;;;;;;;;;30.10;48.90;;;;;;5050617;28;20012;-58
2022/08/12 13:54:24;;;;;;;;;;;30.10;49.30;;;;;;5051219;28;20408;-58
2022/08/12 13:56:49;;;;;;;;;;;29.90;49.50;;;;;;5050855;28;19917;-58
2022/08/12 13:59:16;;;;;;;;;;;29.80;49.70;;;;;;5050740;28;19920;-59
2022/08/12 14:01:41;;;;;;;;;;;29.70;49.90;;;;;;5050785;28;20323;-58
2022/08/12 14:04:10;;;;;;;;;;;30.00;50.20;;;;;;5050601;28;19927;-59
2022/08/12 14:06:37;;;;;;;;;;;30.20;49.40;;;;;;5054199;28;19913;-59
2022/08/12 14:09:03;;;;;;;;;;;29.90;49.50;;;;;;5054757;28;19959;-58
2022/08/12 14:11:28;;;;;;;;;;;29.70;49.80;;;;;;5054813;28;19983;-59
2022/08/12 14:13:56;;;;;;;;;;;29.60;50.20;;;;;;5054700;28;20015;-58
2022/08/12 14:16:22;;;;;;;;;;;30.00;50.00;;;;;;5054748;28;19967;-59
2022/08/12 14:18:47;;;;;;;;;;;30.50;49.40;;;;;;5053876;28;19920;-57
2022/08/12 14:21:14;;;;;;;;;;;30.60;49.00;;;;;;5054684;28;19958;-59
2022/08/12 14:23:41;;;;;;;;;;;30.40;48.70;;;;;;5054219;28;20422;-58
2022/08/12 14:26:11;;;;;;;;;;;30.20;48.90;;;;;;5054354;28;19919;-59
2022/08/12 14:28:37;;;;;;;;;;;30.00;49.30;;;;;;5053860;28;20361;-59
2022/08/12 14:31:04;;;;;;;;;;;30.00;49.70;;;;;;5054073;28;19952;-59
2022/08/12 14:33:33;;;;;;;;;;;30.10;49.70;;;;;;5054501;28;20304;-59
2022/08/12 14:35:59;;;;;;;;;;;30.20;49.60;;;;;;5054011;28;20433;-59
2022/08/12 14:38:26;;;;;;;;;;;30.60;49.40;;;;;;5054123;28;19917;-59
2022/08/12 14:40:55;;;;;;;;;;;31.10;49.30;;;;;;5053682;28;19920;-58
2022/08/12 14:43:21;;;;;;;;;;;31.60;48.80;;;;;;5054722;28;19909;-59
2022/08/12 14:45:47;;;;;;;;;;;32.00;48.00;;;;;;5046342;28;20319;-59
2022/08/12 14:48:13;;;;;;;;;;;32.10;47.70;;;;;;5053640;28;20331;-59
2022/08/12 14:50:40;;;;;;;;;;;31.80;47.70;;;;;;5053800;28;19912;-59
2022/08/12 14:53:09;;;;;;;;;;;31.70;47.90;;;;;;5050871;28;20443;-59
2022/08/12 14:55:37;;;;;;;;;;;31.80;48.00;;;;;;5054032;28;19917;-58
2022/08/12 14:58:02;;;;;;;;;;;31.70;47.30;;;;;;5053270;28;19909;-59
2022/08/12 15:03:13;;;;;;;;;;;31.30;48.70;;;;;;5034309;28;19918;-58
2022/08/12 15:05:39;;;;;;;;;;;31.50;48.60;;;;;;5051912;28;19913;-59
2022/08/12 15:08:12;;;;;;;;;;;31.60;48.40;;;;;;5053624;28;19923;-58
2022/08/12 15:10:45;;;;;;;;;;;31.90;48.10;;;;;;5053860;28;20276;-57
2022/08/12 15:13:11;;;;;;;;;;;32.10;47.90;;;;;;5053577;28;20377;-58
2022/08/12 15:15:37;;;;;;;;;;;32.40;47.40;;;;;;5053925;28;19909;-58
2022/08/12 15:18:04;;;;;;;;;;;32.60;47.30;;;;;;5040716;28;20027;-60
2022/08/12 15:20:30;;;;;;;;;;;32.60;47.20;;;;;;5049467;28;20376;-59
2022/08/12 15:22:55;;;;;;;;;;;32.50;47.00;;;;;;5052941;28;19912;-60
2022/08/12 15:25:21;;;;;;;;;;;32.50;47.50;;;;;;5052132;28;19972;-60
2022/08/12 15:27:48;;;;;;;;;;;32.60;47.20;;;;;;5053224;28;20273;-59
2022/08/12 15:30:18;;;;;;;;;;;32.70;46.90;;;;;;5053425;28;19917;-58
2022/08/12 15:32:45;;;;;;;;;;;32.60;46.90;;;;;;5052626;28;20387;-59
2022/08/12 15:35:13;;;;;;;;;;;32.60;47.40;;;;;;5051455;28;19919;-59
2022/08/12 15:37:39;;;;;;;;;;;32.90;47.30;;;;;;5053164;28;19935;-58
2022/08/12 15:40:05;;;;;;;;;;;32.80;47.00;;;;;;5053288;28;19920;-60
2022/08/12 15:42:30;;;;;;;;;;;33.10;47.10;;;;;;5052146;28;19912;-58
2022/08/12 15:44:56;;;;;;;;;;;32.90;47.30;;;;;;5052662;28;19928;-59
2022/08/12 15:47:23;;;;;;;;;;;32.90;47.00;;;;;;5052183;28;19931;-59
2022/08/12 15:49:49;;;;;;;;;;;32.90;47.30;;;;;;5052176;28;19917;-59
2022/08/12 15:52:22;;;;;;;;;;;32.90;46.90;;;;;;5052316;28;19921;-59
2022/08/12 15:54:48;;;;;;;;;;;32.50;47.10;;;;;;5036839;28;19939;-59
2022/08/12 15:57:13;;;;;;;;;;;32.00;47.30;;;;;;5037871;28;20299;-58
2022/08/12 15:59:39;;;;;;;;;;;31.80;47.50;;;;;;5052383;28;20015;-59
2022/08/12 16:02:04;;;;;;;;;;;32.20;47.80;;;;;;5051887;28;19995;-58
2022/08/12 16:04:30;;;;;;;;;;;32.50;46.80;;;;;;5052605;28;20011;-59